Fédération internationale de Ski
Member Section
Print

OFFICIAL RESULTS

Sarntal (ITA) 01.02.2013

European Cup - Men's Super G

Race codex : 0799
Valid for FIS Points : YES
Jury
TD FIS CIZMAN TOMAZ SLO
Referee M. WALDNER FIS
Assistant Referee C. MITTER NOR
Chief of Race J. BLASINGER ITA
Technical Data
Start Altitude 2100 m.
Finish Altitude 1535 m.
Vertical Drop 565 m.
Course Length 2200 m.
Homologation Number 10389/12/11
Run 1
Course Setter F. HEINZER SUI
Number of Gates 48
Start Time 9:30
 
Show more info»

Competitors

Display filter form
Rank Bib FIS Code Name Year Nation Total Time Diff. FIS Points EC Points
 1  16  202059 FERSTL Josef  1988  GER   1:39.90     7.60  100.00
 2  3  422139 KILDE Aleksander Aamodt  1992  NOR   1:39.96  +0.06  8.23  80.00
 3  9  54076 KOECK Niklas  1992  AUT   1:40.00  +0.10  8.65  60.00
 4  25  511352 VILETTA Sandro  1986  SUI   1:40.21  +0.31  10.86  50.00
 5  5  103512 FRISCH Jeffrey  1984  CAN   1:40.23  +0.33  11.07  45.00
 6  28  202525 SCHMID Manuel  1993  GER   1:40.29  +0.39  11.70  40.00
 7  35  54005 STRIEDINGER Otmar  1991  AUT   1:40.40  +0.50  12.86  36.00
 8  26  54093 STROLZ Johannes  1992  AUT   1:40.49  +0.59  13.80  32.00
 8  1  294904 PANGRAZZI Paolo  1988  ITA   1:40.49  +0.59  13.80  32.00
 10  22  193986 PLACE Francois  1989  FRA   1:40.51  +0.61  14.01  26.00
 11  8  202469 RENZ Fabio  1992  GER   1:40.61  +0.71  15.06  24.00
 12  4  53980 KRIECHMAYR Vincent  1991  AUT   1:40.70  +0.80  16.01  22.00
 13  2  293141 VARETTONI Silvano  1984  ITA   1:40.83  +0.93  17.37  20.00
 14  19  53968 BERTHOLD Frederic  1991  AUT   1:40.87  +0.97  17.80  18.00
 15  30  501439 HEDIN Douglas  1990  SWE   1:40.93  +1.03  18.43  16.00
 15  7  511847 MANI Nils  1992  SUI   1:40.93  +1.03  18.43  16.00
 17  17  511638 TUMLER Thomas  1989  SUI   1:41.01  +1.11  19.27  14.00
 18  20  193967 MUFFAT JEANDET Victor  1989  FRA   1:41.02  +1.12  19.37  13.00
 19  21  53981 KROELL Johannes  1991  AUT   1:41.03  +1.13  19.48  12.00
 20  18  990116 DE ALIPRANDINI Luca  1990  ITA   1:41.06  +1.16  19.79  11.00
 21  10  501230 ERICSSON Daniel  1987  SWE   1:41.15  +1.25  20.74  10.00
 22  29  54009 WALDER Christian  1991  AUT   1:41.16  +1.26  20.84  9.00
 23  31  6530319 COCHRAN-SIEGLE Ryan  1992  USA   1:41.27  +1.37  22.00  8.00
 24  27  194542 GIRAUD MOINE Valentin  1992  FRA   1:41.28  +1.38  22.10  7.00
 25  37  531452 BIESEMEYER Thomas  1989  USA   1:41.36  +1.46  22.95  6.00
 26  39  421650 BJERKESTRAND Iver  1987  NOR   1:41.39  +1.49  23.26  5.00
 27  14  422134 BJERTNESS Endre  1992  NOR   1:41.40  +1.50  23.37  4.00
 28  6  51401 GRAF Bernhard  1988  AUT   1:41.42  +1.52  23.58  3.00
 29  15  194167 MUZATON Maxence  1990  FRA   1:41.44  +1.54  23.79  2.00
 30  40  481705 GLEBOV Alexander  1983  RUS   1:41.46  +1.56  24.00  1.00
 30  38  193034 BOUILLOT Alexandre  1985  FRA   1:41.46  +1.56  24.00  1.00
 32  24  511852 CAVIEZEL Gino  1992  SUI   1:41.47  +1.57  24.10  0.00
 33  54  294185 CORTELLA Michele  1987  ITA   1:41.53  +1.63  24.73  0.00
 34  36  561216 KLINE Bostjan  1991  SLO   1:41.54  +1.64  24.84  0.00
 35  23  930024 MAPLE Wiley  1990  USA   1:41.65  +1.75  25.99  0.00
 36  44  511142 LUEOEND Vitus  1984  SUI   1:41.66  +1.76  26.10  0.00
 36  33  511634 SPESCHA Christian  1989  SUI   1:41.66  +1.76  26.10  0.00
 38  11  53837 KRAMER Manuel  1989  AUT   1:41.78  +1.88  27.36  0.00
 39  46  202323 LINDEBNER Anton  1991  GER   1:41.90  +2.00  28.62  0.00
 40  12  511808 SCHMED Fernando  1991  SUI   1:41.92  +2.02  28.83  0.00
 41  48  511981 WEBER Ralph  1993  SUI   1:42.04  +2.14  30.09  0.00
 42  66  194298 GIEZENDANNER Blaise  1991  FRA   1:42.06  +2.16  30.30  0.00
 42  57  202196 BRANDNER Klaus  1990  GER   1:42.06  +2.16  30.30  0.00
 44  34  103612 PRIDY Morgan  1990  CAN   1:42.22  +2.32  31.98  0.00
 45  65  990051 BOSCA Giulio  1990  ITA   1:42.25  +2.35  32.30  0.00
 46  67  202290 ACKERMANN Marvin  1991  GER   1:42.36  +2.46  33.46  0.00
 47  47  534959 JITLOFF Tim  1985  USA   1:42.67  +2.77  36.71  0.00
 48  62  561254 ZERAK Misel  1992  SLO   1:42.74  +2.84  37.45  0.00
 49  61  561214 DEBELAK Tilen  1991  SLO   1:42.90  +3.00  39.13  0.00
 50  41  561217 KOSI Klemen  1991  SLO   1:42.93  +3.03  39.45  0.00
 51  55  103385 PRIDY Conrad  1988  CAN   1:43.08  +3.18  41.02  0.00
 52  68  194650 PICCARD Roy  1993  FRA   1:43.14  +3.24  41.65  0.00
 53  72  220695 CRAWFORD Douglas  1987  GBR   1:43.19  +3.29  42.18  0.00
 54  86  910004 DEFLORIAN Mirko  1980  MDA   1:43.30  +3.40  43.34  0.00
 55  77  491129 TERRA Ferran  1987  ESP   1:43.51  +3.61  45.54  0.00
 56  74  561244 KRANJEC Zan  1992  SLO   1:43.72  +3.82  47.75  0.00
 57  75  6290454 HOFER Aaron  1992  ITA   1:43.75  +3.85  48.07  0.00
 58  64  512014 NIEDERBERGER Bernhard  1993  SUI   1:43.82  +3.92  48.80  0.00
 59  71  53975 HEMETSBERGER Daniel  1991  AUT   1:43.85  +3.95  49.12  0.00
 60  63  481196 BYSTROV Andrey  1991  RUS   1:44.00  +4.10  50.69  0.00
 61  80  194262 BUFFET Robin  1991  FRA   1:44.28  +4.38  53.64  0.00
 62  69  422304 KRISTOFFERSEN Henrik  1994  NOR   1:44.37  +4.47  54.58  0.00
 63  90  202566 BRANDNER Christof  1994  GER   1:44.43  +4.53  55.21  0.00
 64  84  690616 TENTORI Michelangelo  1991  ITA   1:44.47  +4.57  55.63  0.00
 65  82  6291029 BATTILANI Henri  1994  ITA   1:44.60  +4.70  57.00  0.00
 66  32  30149 SIMARI BIRKNER Cristian Javier  1980  ARG   1:44.75  +4.85  58.58  0.00
 67  91  6291378 MESSNER Maximilian  1994  ITA   1:44.76  +4.86  58.68  0.00
 68  101  6290670 KUPPELWIESER Luis  1993  ITA   1:44.79  +4.89  59.00  0.00
 69  111  370031 ALESSANDRIA Arnaud  1993  MON   1:44.86  +4.96  59.73  0.00
 70  92  422082 SOLEVAAG Sebastian-Foss  1991  NOR   1:44.87  +4.97  59.84  0.00
 71  94  6290659 MARTINER Alex  1993  ITA   1:44.90  +5.00  60.15  0.00
 72  96  6290662 RABANSER Alexander  1993  ITA   1:44.96  +5.06  60.78  0.00
 73  85  6290985 BUZZI Emanuele  1994  ITA   1:45.18  +5.28  63.10  0.00
 74  81  502042 BAUER Fredrik  1995  SWE   1:45.21  +5.31  63.41  0.00
 75  106  6291784 ATZ Christoph  1995  ITA   1:45.22  +5.32  63.52  0.00
 76  97  6291054 CERBO Nicolo  1994  ITA   1:45.41  +5.51  65.51  0.00
 77  102  501751 STEDING Daniel  1992  SWE   1:45.45  +5.55  65.93  0.00
 78  83  6290065 CODEGA Ivan  1992  ITA   1:45.46  +5.56  66.04  0.00
 79  112  6291466 SQUASSINO Andrea  1995  ITA   1:45.49  +5.59  66.35  0.00
 80  100  501736 HEDMAN Bjoern  1992  SWE   1:45.60  +5.70  67.51  0.00
 81  95  6290151 BERETTA Carlo  1992  ITA   1:45.87  +5.97  70.35  0.00
 82  87  481514 BORODAYKIN Artem  1994  RUS   1:45.98  +6.08  71.50  0.00
 83  98  194895 CLAIR Titouan  1994  FRA   1:46.04  +6.14  72.13  0.00
 84  109  6291100 LINTNER Fritz  1994  ITA   1:46.25  +6.35  74.34  0.00
 85  105  6291023 BELLINI Nicholas  1994  ITA   1:46.57  +6.67  77.71  0.00
 86  110  670037 ZAKURDAEV Igor  1987  KAZ   1:47.29  +7.39  85.27  0.00
 87  108  550022 RODE Roberts  1987  LAT   1:48.05  +8.15  93.26  0.00
Did not finish 1st run
   113  6291615 ZANETTI Massimiliano  1995  ITA         0.00
   107  6291062 NANA Filippo  1994  ITA         0.00
   104  6291630 CIPRIANI Pietro  1995  ITA         0.00
   103  6290278 DONEDDU Alessandro  1992  ITA         0.00
   99  194873 SARRAZIN Cyprien  1994  FRA         0.00
   93  202424 FERSTL Christian  1992  GER         0.00
   89  20174 VIDOSA Roger  1984  AND         0.00
   88  690161 BREAN Alessandro  1991  ITA         0.00
   79  511983 AERNI Luca  1993  SUI         0.00
   78  202603 MAAS Max  1994  GER         0.00
   76  194368 RAFFORT Nicolas  1991  FRA         0.00
   73  20267 ESTEVE Kevin  1989  AND         0.00
   70  6290350 RAVELLI Andrea  1992  ITA         0.00
   60  481054 MURAVYEV Ivan  1989  RUS         0.00
   59  422073 NETELAND Bjoernar  1991  NOR         0.00
   58  561255 CATER Martin  1992  SLO         0.00
   56  220874 BALDWIN TJ  1990  GBR         0.00
   53  511682 FRAVI Jonas  1990  SUI         0.00
   52  491151 DE LA CUESTA Paul  1988  ESP         0.00
   51  54075 KARELLY Mario  1992  AUT         0.00
   50  422039 KYLLINGSTAD Christoffer  1991  NOR         0.00
   49  511529 GISIN Marc  1988  SUI         0.00
   45  53936 DUERAGER Markus  1990  AUT         0.00
   43  193560 PASQUIER Alexandre  1987  FRA         0.00
   42  561199 SOVIC Tomaz  1990  SLO         0.00
   13  54099 MAYRPETER Thomas  1992  AUT         0.00